sensor_id;sensor_type;location;lat;lon;timestamp;pressure;altitude;pressure_sealevel;temperature
14851;BMP180;7517;48.400;11.770;2022-09-09T00:01:09;96241.00;;;18.20
14851;BMP180;7517;48.400;11.770;2022-09-09T00:03:47;96240.00;;;18.20
14851;BMP180;7517;48.400;11.770;2022-09-09T00:06:28;96242.00;;;18.20
14851;BMP180;7517;48.400;11.770;2022-09-09T00:09:07;96237.00;;;18.20
14851;BMP180;7517;48.400;11.770;2022-09-09T00:11:43;96242.00;;;18.20
14851;BMP180;7517;48.400;11.770;2022-09-09T00:14:22;96237.00;;;18.20
14851;BMP180;7517;48.400;11.770;2022-09-09T00:16:57;96228.00;;;18.20
14851;BMP180;7517;48.400;11.770;2022-09-09T00:19:33;96231.00;;;18.10
14851;BMP180;7517;48.400;11.770;2022-09-09T00:22:16;96240.00;;;18.10
14851;BMP180;7517;48.400;11.770;2022-09-09T00:24:48;96244.00;;;18.10
14851;BMP180;7517;48.400;11.770;2022-09-09T00:27:25;96241.00;;;18.10
14851;BMP180;7517;48.400;11.770;2022-09-09T00:30:13;96236.00;;;18.00
14851;BMP180;7517;48.400;11.770;2022-09-09T00:32:43;96231.00;;;18.10
14851;BMP180;7517;48.400;11.770;2022-09-09T00:35:18;96232.00;;;18.10
14851;BMP180;7517;48.400;11.770;2022-09-09T00:37:50;96231.00;;;18.10
14851;BMP180;7517;48.400;11.770;2022-09-09T00:40:27;96231.00;;;18.10
14851;BMP180;7517;48.400;11.770;2022-09-09T00:43:24;96235.00;;;18.00
14851;BMP180;7517;48.400;11.770;2022-09-09T00:46:25;96242.00;;;18.00
14851;BMP180;7517;48.400;11.770;2022-09-09T00:49:04;96233.00;;;18.00
14851;BMP180;7517;48.400;11.770;2022-09-09T00:51:48;96243.00;;;18.00
14851;BMP180;7517;48.400;11.770;2022-09-09T00:54:44;96242.00;;;18.00
14851;BMP180;7517;48.400;11.770;2022-09-09T00:57:25;96239.00;;;18.00
14851;BMP180;7517;48.400;11.770;2022-09-09T01:00:15;96241.00;;;18.00
14851;BMP180;7517;48.400;11.770;2022-09-09T01:03:07;96237.00;;;18.00
14851;BMP180;7517;48.400;11.770;2022-09-09T01:05:44;96237.00;;;18.00
14851;BMP180;7517;48.400;11.770;2022-09-09T01:08:35;96238.00;;;18.00
14851;BMP180;7517;48.400;11.770;2022-09-09T01:11:17;96239.00;;;18.00
14851;BMP180;7517;48.400;11.770;2022-09-09T01:13:55;96227.00;;;18.00
14851;BMP180;7517;48.400;11.770;2022-09-09T01:16:28;96231.00;;;18.00
14851;BMP180;7517;48.400;11.770;2022-09-09T01:18:58;96228.00;;;18.00
14851;BMP180;7517;48.400;11.770;2022-09-09T01:21:39;96219.00;;;18.00
14851;BMP180;7517;48.400;11.770;2022-09-09T01:24:26;96228.00;;;18.00
14851;BMP180;7517;48.400;11.770;2022-09-09T01:26:59;96234.00;;;18.00
14851;BMP180;7517;48.400;11.770;2022-09-09T01:29:28;96239.00;;;18.00
14851;BMP180;7517;48.400;11.770;2022-09-09T01:31:57;96237.00;;;18.00
14851;BMP180;7517;48.400;11.770;2022-09-09T01:34:30;96223.00;;;17.90
14851;BMP180;7517;48.400;11.770;2022-09-09T01:37:02;96235.00;;;17.90
14851;BMP180;7517;48.400;11.770;2022-09-09T01:39:31;96228.00;;;17.90
14851;BMP180;7517;48.400;11.770;2022-09-09T01:42:01;96222.00;;;17.90
14851;BMP180;7517;48.400;11.770;2022-09-09T01:44:29;96232.00;;;17.90
14851;BMP180;7517;48.400;11.770;2022-09-09T01:46:57;96231.00;;;17.80
14851;BMP180;7517;48.400;11.770;2022-09-09T01:49:24;96238.00;;;17.80
14851;BMP180;7517;48.400;11.770;2022-09-09T01:51:54;96238.00;;;17.80
14851;BMP180;7517;48.400;11.770;2022-09-09T01:54:26;96243.00;;;17.80
14851;BMP180;7517;48.400;11.770;2022-09-09T01:57:08;96241.00;;;17.80
14851;BMP180;7517;48.400;11.770;2022-09-09T02:00:00;96241.00;;;17.80
14851;BMP180;7517;48.400;11.770;2022-09-09T02:02:36;96245.00;;;17.80
14851;BMP180;7517;48.400;11.770;2022-09-09T02:05:20;96249.00;;;17.80
14851;BMP180;7517;48.400;11.770;2022-09-09T02:07:59;96247.00;;;17.80
14851;BMP180;7517;48.400;11.770;2022-09-09T02:10:33;96247.00;;;17.80
14851;BMP180;7517;48.400;11.770;2022-09-09T02:13:11;96241.00;;;17.80
14851;BMP180;7517;48.400;11.770;2022-09-09T02:15:45;96245.00;;;17.70
14851;BMP180;7517;48.400;11.770;2022-09-09T02:18:21;96242.00;;;17.70
14851;BMP180;7517;48.400;11.770;2022-09-09T02:20:52;96249.00;;;17.80
14851;BMP180;7517;48.400;11.770;2022-09-09T02:23:21;96245.00;;;17.80
14851;BMP180;7517;48.400;11.770;2022-09-09T02:25:50;96234.00;;;17.80
14851;BMP180;7517;48.400;11.770;2022-09-09T02:28:24;96233.00;;;17.80
14851;BMP180;7517;48.400;11.770;2022-09-09T02:30:52;96239.00;;;17.90
14851;BMP180;7517;48.400;11.770;2022-09-09T02:33:24;96232.00;;;17.90
14851;BMP180;7517;48.400;11.770;2022-09-09T02:35:55;96227.00;;;17.80
14851;BMP180;7517;48.400;11.770;2022-09-09T02:38:32;96223.00;;;17.80
14851;BMP180;7517;48.400;11.770;2022-09-09T02:41:01;96227.00;;;17.80
14851;BMP180;7517;48.400;11.770;2022-09-09T02:43:33;96229.00;;;17.90
14851;BMP180;7517;48.400;11.770;2022-09-09T02:46:24;96227.00;;;17.90
14851;BMP180;7517;48.400;11.770;2022-09-09T02:49:00;96212.00;;;17.90
14851;BMP180;7517;48.400;11.770;2022-09-09T02:51:39;96210.00;;;17.90
14851;BMP180;7517;48.400;11.770;2022-09-09T02:54:16;96212.00;;;17.90
14851;BMP180;7517;48.400;11.770;2022-09-09T02:56:52;96215.00;;;17.90
14851;BMP180;7517;48.400;11.770;2022-09-09T02:59:22;96223.00;;;17.90
14851;BMP180;7517;48.400;11.770;2022-09-09T03:01:49;96213.00;;;17.90
14851;BMP180;7517;48.400;11.770;2022-09-09T03:04:16;96215.00;;;17.80
14851;BMP180;7517;48.400;11.770;2022-09-09T03:06:43;96209.00;;;17.80
14851;BMP180;7517;48.400;11.770;2022-09-09T03:09:10;96212.00;;;17.80
14851;BMP180;7517;48.400;11.770;2022-09-09T03:11:38;96212.00;;;17.80
14851;BMP180;7517;48.400;11.770;2022-09-09T03:14:05;96214.00;;;17.70
14851;BMP180;7517;48.400;11.770;2022-09-09T03:16:33;96212.00;;;17.70
14851;BMP180;7517;48.400;11.770;2022-09-09T03:19:01;96212.00;;;17.70
14851;BMP180;7517;48.400;11.770;2022-09-09T03:21:28;96200.00;;;17.70
14851;BMP180;7517;48.400;11.770;2022-09-09T03:23:55;96206.00;;;17.70
14851;BMP180;7517;48.400;11.770;2022-09-09T03:26:23;96207.00;;;17.60
14851;BMP180;7517;48.400;11.770;2022-09-09T03:28:50;96206.00;;;17.60
14851;BMP180;7517;48.400;11.770;2022-09-09T03:31:18;96202.00;;;17.60
14851;BMP180;7517;48.400;11.770;2022-09-09T03:33:46;96197.00;;;17.60
14851;BMP180;7517;48.400;11.770;2022-09-09T03:36:14;96201.00;;;17.60
14851;BMP180;7517;48.400;11.770;2022-09-09T03:38:41;96197.00;;;17.60
14851;BMP180;7517;48.400;11.770;2022-09-09T03:41:09;96201.00;;;17.60
14851;BMP180;7517;48.400;11.770;2022-09-09T03:43:36;96196.00;;;17.60
14851;BMP180;7517;48.400;11.770;2022-09-09T03:46:03;96204.00;;;17.60
14851;BMP180;7517;48.400;11.770;2022-09-09T03:48:30;96196.00;;;17.70
14851;BMP180;7517;48.400;11.770;2022-09-09T03:50:59;96197.00;;;17.70
14851;BMP180;7517;48.400;11.770;2022-09-09T03:53:27;96199.00;;;17.70
14851;BMP180;7517;48.400;11.770;2022-09-09T03:55:56;96211.00;;;17.70
14851;BMP180;7517;48.400;11.770;2022-09-09T03:58:27;96202.00;;;17.70
14851;BMP180;7517;48.400;11.770;2022-09-09T04:00:55;96195.00;;;17.80
14851;BMP180;7517;48.400;11.770;2022-09-09T04:03:23;96196.00;;;17.80
14851;BMP180;7517;48.400;11.770;2022-09-09T04:05:51;96197.00;;;17.80
14851;BMP180;7517;48.400;11.770;2022-09-09T04:08:20;96198.00;;;17.90
14851;BMP180;7517;48.400;11.770;2022-09-09T04:10:49;96189.00;;;17.90
14851;BMP180;7517;48.400;11.770;2022-09-09T04:13:18;96188.00;;;17.90
14851;BMP180;7517;48.400;11.770;2022-09-09T04:15:51;96191.00;;;18.00
14851;BMP180;7517;48.400;11.770;2022-09-09T04:18:18;96188.00;;;18.00
14851;BMP180;7517;48.400;11.770;2022-09-09T04:20:46;96192.00;;;18.00
14851;BMP180;7517;48.400;11.770;2022-09-09T04:23:14;96189.00;;;18.00
14851;BMP180;7517;48.400;11.770;2022-09-09T04:25:45;96196.00;;;18.00
14851;BMP180;7517;48.400;11.770;2022-09-09T04:28:13;96190.00;;;18.00
14851;BMP180;7517;48.400;11.770;2022-09-09T04:30:40;96198.00;;;18.00
14851;BMP180;7517;48.400;11.770;2022-09-09T04:33:07;96204.00;;;18.10
14851;BMP180;7517;48.400;11.770;2022-09-09T04:35:35;96200.00;;;18.10
14851;BMP180;7517;48.400;11.770;2022-09-09T04:38:04;96204.00;;;18.10
14851;BMP180;7517;48.400;11.770;2022-09-09T04:40:33;96202.00;;;18.10
14851;BMP180;7517;48.400;11.770;2022-09-09T04:43:03;96198.00;;;18.10
14851;BMP180;7517;48.400;11.770;2022-09-09T04:45:30;96192.00;;;18.20
14851;BMP180;7517;48.400;11.770;2022-09-09T04:47:58;96182.00;;;18.20
14851;BMP180;7517;48.400;11.770;2022-09-09T04:50:25;96179.00;;;18.30
14851;BMP180;7517;48.400;11.770;2022-09-09T04:52:52;96185.00;;;18.30
14851;BMP180;7517;48.400;11.770;2022-09-09T04:55:19;96184.00;;;18.40
14851;BMP180;7517;48.400;11.770;2022-09-09T04:57:46;96185.00;;;18.40
14851;BMP180;7517;48.400;11.770;2022-09-09T05:00:16;96176.00;;;18.40
14851;BMP180;7517;48.400;11.770;2022-09-09T05:02:45;96182.00;;;18.40
14851;BMP180;7517;48.400;11.770;2022-09-09T05:05:13;96188.00;;;18.50
14851;BMP180;7517;48.400;11.770;2022-09-09T05:07:40;96186.00;;;18.50
14851;BMP180;7517;48.400;11.770;2022-09-09T05:10:08;96189.00;;;18.50
14851;BMP180;7517;48.400;11.770;2022-09-09T05:12:36;96187.00;;;18.50
14851;BMP180;7517;48.400;11.770;2022-09-09T05:15:04;96191.00;;;18.40
14851;BMP180;7517;48.400;11.770;2022-09-09T05:17:34;96194.00;;;18.40
14851;BMP180;7517;48.400;11.770;2022-09-09T05:20:02;96196.00;;;18.40
14851;BMP180;7517;48.400;11.770;2022-09-09T05:22:29;96199.00;;;18.40
14851;BMP180;7517;48.400;11.770;2022-09-09T05:24:57;96201.00;;;18.40
14851;BMP180;7517;48.400;11.770;2022-09-09T05:27:24;96195.00;;;18.40
14851;BMP180;7517;48.400;11.770;2022-09-09T05:29:51;96195.00;;;18.40
14851;BMP180;7517;48.400;11.770;2022-09-09T05:32:18;96198.00;;;18.40
14851;BMP180;7517;48.400;11.770;2022-09-09T05:34:47;96193.00;;;18.40
14851;BMP180;7517;48.400;11.770;2022-09-09T05:37:14;96201.00;;;18.40
14851;BMP180;7517;48.400;11.770;2022-09-09T05:39:42;96199.00;;;18.40
14851;BMP180;7517;48.400;11.770;2022-09-09T05:42:09;96200.00;;;18.40
14851;BMP180;7517;48.400;11.770;2022-09-09T05:44:36;96210.00;;;18.40
14851;BMP180;7517;48.400;11.770;2022-09-09T05:47:04;96203.00;;;18.40
14851;BMP180;7517;48.400;11.770;2022-09-09T05:49:31;96218.00;;;18.40
14851;BMP180;7517;48.400;11.770;2022-09-09T05:52:00;96214.00;;;18.40
14851;BMP180;7517;48.400;11.770;2022-09-09T05:54:30;96215.00;;;18.40
14851;BMP180;7517;48.400;11.770;2022-09-09T05:56:58;96209.00;;;18.40
14851;BMP180;7517;48.400;11.770;2022-09-09T05:59:25;96206.00;;;18.40
14851;BMP180;7517;48.400;11.770;2022-09-09T06:01:53;96209.00;;;18.50
14851;BMP180;7517;48.400;11.770;2022-09-09T06:04:20;96208.00;;;18.50
14851;BMP180;7517;48.400;11.770;2022-09-09T06:06:48;96219.00;;;18.50
14851;BMP180;7517;48.400;11.770;2022-09-09T06:09:16;96214.00;;;18.60
14851;BMP180;7517;48.400;11.770;2022-09-09T06:11:44;96208.00;;;18.60
14851;BMP180;7517;48.400;11.770;2022-09-09T06:14:11;96218.00;;;18.60
14851;BMP180;7517;48.400;11.770;2022-09-09T06:16:38;96210.00;;;18.70
14851;BMP180;7517;48.400;11.770;2022-09-09T06:19:09;96204.00;;;18.70
14851;BMP180;7517;48.400;11.770;2022-09-09T06:21:38;96203.00;;;18.80
14851;BMP180;7517;48.400;11.770;2022-09-09T06:24:06;96214.00;;;18.80
14851;BMP180;7517;48.400;11.770;2022-09-09T06:26:37;96215.00;;;18.90
14851;BMP180;7517;48.400;11.770;2022-09-09T06:29:08;96208.00;;;18.90
14851;BMP180;7517;48.400;11.770;2022-09-09T06:31:37;96214.00;;;19.00
14851;BMP180;7517;48.400;11.770;2022-09-09T06:34:06;96220.00;;;19.10
14851;BMP180;7517;48.400;11.770;2022-09-09T06:36:35;96216.00;;;19.10
14851;BMP180;7517;48.400;11.770;2022-09-09T06:39:04;96207.00;;;19.20
14851;BMP180;7517;48.400;11.770;2022-09-09T06:41:33;96201.00;;;19.30
14851;BMP180;7517;48.400;11.770;2022-09-09T06:44:02;96211.00;;;19.30
14851;BMP180;7517;48.400;11.770;2022-09-09T06:46:31;96212.00;;;19.40
14851;BMP180;7517;48.400;11.770;2022-09-09T06:48:59;96211.00;;;19.40
14851;BMP180;7517;48.400;11.770;2022-09-09T06:51:29;96215.00;;;19.50
14851;BMP180;7517;48.400;11.770;2022-09-09T06:53:58;96219.00;;;19.50
14851;BMP180;7517;48.400;11.770;2022-09-09T06:56:28;96227.00;;;19.60
14851;BMP180;7517;48.400;11.770;2022-09-09T06:58:58;96229.00;;;19.70
14851;BMP180;7517;48.400;11.770;2022-09-09T07:01:30;96234.00;;;19.70
14851;BMP180;7517;48.400;11.770;2022-09-09T07:03:59;96232.00;;;19.80
14851;BMP180;7517;48.400;11.770;2022-09-09T07:06:28;96244.00;;;19.80
14851;BMP180;7517;48.400;11.770;2022-09-09T07:08:58;96251.00;;;19.90
14851;BMP180;7517;48.400;11.770;2022-09-09T07:11:28;96264.00;;;19.90
14851;BMP180;7517;48.400;11.770;2022-09-09T07:13:58;96287.00;;;19.90
14851;BMP180;7517;48.400;11.770;2022-09-09T07:16:28;96305.00;;;20.00
14851;BMP180;7517;48.400;11.770;2022-09-09T07:18:57;96305.00;;;20.00
14851;BMP180;7517;48.400;11.770;2022-09-09T07:21:26;96293.00;;;20.00
14851;BMP180;7517;48.400;11.770;2022-09-09T07:23:54;96308.00;;;20.00
14851;BMP180;7517;48.400;11.770;2022-09-09T07:26:24;96294.00;;;20.10
14851;BMP180;7517;48.400;11.770;2022-09-09T07:28:52;96291.00;;;20.10
14851;BMP180;7517;48.400;11.770;2022-09-09T07:31:22;96298.00;;;20.10
14851;BMP180;7517;48.400;11.770;2022-09-09T07:33:51;96301.00;;;20.10
14851;BMP180;7517;48.400;11.770;2022-09-09T07:36:20;96308.00;;;20.20
14851;BMP180;7517;48.400;11.770;2022-09-09T07:38:52;96317.00;;;20.20
14851;BMP180;7517;48.400;11.770;2022-09-09T07:41:23;96315.00;;;20.20
14851;BMP180;7517;48.400;11.770;2022-09-09T07:43:52;96323.00;;;20.20
14851;BMP180;7517;48.400;11.770;2022-09-09T07:46:22;96317.00;;;20.30
14851;BMP180;7517;48.400;11.770;2022-09-09T07:48:54;96326.00;;;20.30
14851;BMP180;7517;48.400;11.770;2022-09-09T07:51:25;96331.00;;;20.30
14851;BMP180;7517;48.400;11.770;2022-09-09T07:53:56;96342.00;;;20.30
14851;BMP180;7517;48.400;11.770;2022-09-09T07:56:25;96338.00;;;20.40
14851;BMP180;7517;48.400;11.770;2022-09-09T07:58:55;96335.00;;;20.40
14851;BMP180;7517;48.400;11.770;2022-09-09T08:01:25;96326.00;;;20.40
14851;BMP180;7517;48.400;11.770;2022-09-09T08:03:56;96325.00;;;20.50
14851;BMP180;7517;48.400;11.770;2022-09-09T08:06:26;96320.00;;;20.50
14851;BMP180;7517;48.400;11.770;2022-09-09T08:08:54;96320.00;;;20.50
14851;BMP180;7517;48.400;11.770;2022-09-09T08:11:23;96314.00;;;20.50
14851;BMP180;7517;48.400;11.770;2022-09-09T08:13:52;96306.00;;;20.50
14851;BMP180;7517;48.400;11.770;2022-09-09T08:16:23;96312.00;;;20.60
14851;BMP180;7517;48.400;11.770;2022-09-09T08:18:53;96318.00;;;20.60
14851;BMP180;7517;48.400;11.770;2022-09-09T08:21:24;96318.00;;;20.70
14851;BMP180;7517;48.400;11.770;2022-09-09T08:23:55;96319.00;;;20.70
14851;BMP180;7517;48.400;11.770;2022-09-09T08:26:25;96320.00;;;20.80
14851;BMP180;7517;48.400;11.770;2022-09-09T08:28:56;96323.00;;;20.80
14851;BMP180;7517;48.400;11.770;2022-09-09T08:31:26;96323.00;;;20.80
14851;BMP180;7517;48.400;11.770;2022-09-09T08:33:56;96330.00;;;20.90
14851;BMP180;7517;48.400;11.770;2022-09-09T08:36:35;96327.00;;;20.90
14851;BMP180;7517;48.400;11.770;2022-09-09T08:39:05;96332.00;;;20.90
14851;BMP180;7517;48.400;11.770;2022-09-09T08:45:10;96352.00;;;21.00
14851;BMP180;7517;48.400;11.770;2022-09-09T08:47:51;96358.00;;;21.10
14851;BMP180;7517;48.400;11.770;2022-09-09T08:50:27;96348.00;;;21.10
14851;BMP180;7517;48.400;11.770;2022-09-09T08:53:01;96342.00;;;21.20
14851;BMP180;7517;48.400;11.770;2022-09-09T08:55:39;96340.00;;;21.20
14851;BMP180;7517;48.400;11.770;2022-09-09T08:58:14;96347.00;;;21.20
14851;BMP180;7517;48.400;11.770;2022-09-09T09:01:00;96339.00;;;21.20
14851;BMP180;7517;48.400;11.770;2022-09-09T09:03:40;96333.00;;;21.20
14851;BMP180;7517;48.400;11.770;2022-09-09T09:06:30;96336.00;;;21.30
14851;BMP180;7517;48.400;11.770;2022-09-09T09:09:08;96349.00;;;21.30
14851;BMP180;7517;48.400;11.770;2022-09-09T09:11:47;96344.00;;;21.40
14851;BMP180;7517;48.400;11.770;2022-09-09T09:14:20;96357.00;;;21.40
14851;BMP180;7517;48.400;11.770;2022-09-09T09:16:54;96350.00;;;21.50
14851;BMP180;7517;48.400;11.770;2022-09-09T09:19:23;96352.00;;;21.50
14851;BMP180;7517;48.400;11.770;2022-09-09T09:22:00;96355.00;;;21.60
14851;BMP180;7517;48.400;11.770;2022-09-09T09:24:43;96344.00;;;21.70
14851;BMP180;7517;48.400;11.770;2022-09-09T09:27:15;96344.00;;;21.80
14851;BMP180;7517;48.400;11.770;2022-09-09T09:29:44;96334.00;;;21.80
14851;BMP180;7517;48.400;11.770;2022-09-09T09:32:18;96326.00;;;21.80
14851;BMP180;7517;48.400;11.770;2022-09-09T09:34:49;96321.00;;;21.90
14851;BMP180;7517;48.400;11.770;2022-09-09T09:37:27;96332.00;;;21.90
14851;BMP180;7517;48.400;11.770;2022-09-09T09:39:55;96338.00;;;22.00
14851;BMP180;7517;48.400;11.770;2022-09-09T09:42:23;96339.00;;;22.00
14851;BMP180;7517;48.400;11.770;2022-09-09T09:44:50;96334.00;;;22.00
14851;BMP180;7517;48.400;11.770;2022-09-09T09:47:20;96336.00;;;22.00
14851;BMP180;7517;48.400;11.770;2022-09-09T09:49:56;96334.00;;;22.10
14851;BMP180;7517;48.400;11.770;2022-09-09T09:52:28;96336.00;;;22.10
14851;BMP180;7517;48.400;11.770;2022-09-09T09:54:58;96337.00;;;22.10
14851;BMP180;7517;48.400;11.770;2022-09-09T09:57:29;96346.00;;;22.10
14851;BMP180;7517;48.400;11.770;2022-09-09T10:00:13;96345.00;;;22.10
14851;BMP180;7517;48.400;11.770;2022-09-09T10:02:45;96353.00;;;22.10
14851;BMP180;7517;48.400;11.770;2022-09-09T10:05:16;96359.00;;;22.10
14851;BMP180;7517;48.400;11.770;2022-09-09T10:07:45;96363.00;;;22.10
14851;BMP180;7517;48.400;11.770;2022-09-09T10:10:20;96355.00;;;22.10
14851;BMP180;7517;48.400;11.770;2022-09-09T10:13:02;96361.00;;;22.10
14851;BMP180;7517;48.400;11.770;2022-09-09T10:15:48;96350.00;;;22.10
14851;BMP180;7517;48.400;11.770;2022-09-09T10:18:37;96364.00;;;22.20
14851;BMP180;7517;48.400;11.770;2022-09-09T10:21:43;96361.00;;;22.20
14851;BMP180;7517;48.400;11.770;2022-09-09T10:24:48;96360.00;;;22.30
14851;BMP180;7517;48.400;11.770;2022-09-09T10:27:30;96354.00;;;22.30
14851;BMP180;7517;48.400;11.770;2022-09-09T10:30:13;96355.00;;;22.40
14851;BMP180;7517;48.400;11.770;2022-09-09T10:32:48;96355.00;;;22.40
14851;BMP180;7517;48.400;11.770;2022-09-09T10:35:31;96356.00;;;22.40
14851;BMP180;7517;48.400;11.770;2022-09-09T10:38:18;96358.00;;;22.40
14851;BMP180;7517;48.400;11.770;2022-09-09T10:41:11;96360.00;;;22.50
14851;BMP180;7517;48.400;11.770;2022-09-09T10:47:19;96358.00;;;22.60
14851;BMP180;7517;48.400;11.770;2022-09-09T10:52:28;96358.00;;;22.60
14851;BMP180;7517;48.400;11.770;2022-09-09T10:55:08;96362.00;;;22.70
14851;BMP180;7517;48.400;11.770;2022-09-09T10:57:41;96359.00;;;22.70
14851;BMP180;7517;48.400;11.770;2022-09-09T11:00:18;96358.00;;;22.80
14851;BMP180;7517;48.400;11.770;2022-09-09T11:02:51;96353.00;;;22.80
14851;BMP180;7517;48.400;11.770;2022-09-09T11:05:22;96355.00;;;22.80
14851;BMP180;7517;48.400;11.770;2022-09-09T11:07:56;96363.00;;;22.90
14851;BMP180;7517;48.400;11.770;2022-09-09T11:10:29;96359.00;;;22.90
14851;BMP180;7517;48.400;11.770;2022-09-09T11:13:08;96357.00;;;23.00
14851;BMP180;7517;48.400;11.770;2022-09-09T11:15:43;96364.00;;;23.00
14851;BMP180;7517;48.400;11.770;2022-09-09T11:18:22;96354.00;;;23.10
14851;BMP180;7517;48.400;11.770;2022-09-09T11:20:58;96352.00;;;23.10
14851;BMP180;7517;48.400;11.770;2022-09-09T11:23:43;96352.00;;;23.10
14851;BMP180;7517;48.400;11.770;2022-09-09T11:26:17;96353.00;;;23.10
14851;BMP180;7517;48.400;11.770;2022-09-09T11:29:07;96350.00;;;23.10
14851;BMP180;7517;48.400;11.770;2022-09-09T11:31:50;96354.00;;;23.20
14851;BMP180;7517;48.400;11.770;2022-09-09T11:34:44;96348.00;;;23.30
14851;BMP180;7517;48.400;11.770;2022-09-09T11:37:56;96341.00;;;23.30
14851;BMP180;7517;48.400;11.770;2022-09-09T11:40:27;96340.00;;;23.40
14851;BMP180;7517;48.400;11.770;2022-09-09T11:43:05;96341.00;;;23.50
14851;BMP180;7517;48.400;11.770;2022-09-09T11:45:37;96339.00;;;23.60
14851;BMP180;7517;48.400;11.770;2022-09-09T11:48:05;96335.00;;;23.70
14851;BMP180;7517;48.400;11.770;2022-09-09T11:51:00;96335.00;;;23.90
14851;BMP180;7517;48.400;11.770;2022-09-09T11:53:29;96335.00;;;24.00
14851;BMP180;7517;48.400;11.770;2022-09-09T11:56:12;96328.00;;;24.10
14851;BMP180;7517;48.400;11.770;2022-09-09T11:58:53;96329.00;;;24.10
14851;BMP180;7517;48.400;11.770;2022-09-09T12:01:41;96343.00;;;24.20
14851;BMP180;7517;48.400;11.770;2022-09-09T12:04:27;96342.00;;;24.30
14851;BMP180;7517;48.400;11.770;2022-09-09T12:06:59;96344.00;;;24.30
14851;BMP180;7517;48.400;11.770;2022-09-09T12:09:42;96342.00;;;24.40
14851;BMP180;7517;48.400;11.770;2022-09-09T12:12:38;96341.00;;;24.40
14851;BMP180;7517;48.400;11.770;2022-09-09T12:15:23;96333.00;;;24.40
14851;BMP180;7517;48.400;11.770;2022-09-09T12:17:57;96335.00;;;24.40
14851;BMP180;7517;48.400;11.770;2022-09-09T12:20:34;96333.00;;;24.40
14851;BMP180;7517;48.400;11.770;2022-09-09T12:23:34;96333.00;;;24.40
14851;BMP180;7517;48.400;11.770;2022-09-09T12:26:30;96332.00;;;24.50
14851;BMP180;7517;48.400;11.770;2022-09-09T12:29:13;96329.00;;;24.50
14851;BMP180;7517;48.400;11.770;2022-09-09T12:31:52;96330.00;;;24.50
14851;BMP180;7517;48.400;11.770;2022-09-09T12:34:36;96325.00;;;24.60
14851;BMP180;7517;48.400;11.770;2022-09-09T12:37:15;96326.00;;;24.60
14851;BMP180;7517;48.400;11.770;2022-09-09T12:39:50;96324.00;;;24.60
14851;BMP180;7517;48.400;11.770;2022-09-09T12:42:21;96318.00;;;24.70
14851;BMP180;7517;48.400;11.770;2022-09-09T12:44:57;96321.00;;;24.70
14851;BMP180;7517;48.400;11.770;2022-09-09T12:47:36;96322.00;;;24.80
14851;BMP180;7517;48.400;11.770;2022-09-09T12:50:17;96315.00;;;24.80
14851;BMP180;7517;48.400;11.770;2022-09-09T12:52:47;96309.00;;;24.80
14851;BMP180;7517;48.400;11.770;2022-09-09T12:55:20;96311.00;;;24.80
14851;BMP180;7517;48.400;11.770;2022-09-09T12:57:51;96304.00;;;24.80
14851;BMP180;7517;48.400;11.770;2022-09-09T13:00:22;96298.00;;;24.80
14851;BMP180;7517;48.400;11.770;2022-09-09T13:02:53;96299.00;;;24.80
14851;BMP180;7517;48.400;11.770;2022-09-09T13:05:26;96291.00;;;24.80
14851;BMP180;7517;48.400;11.770;2022-09-09T13:08:02;96287.00;;;24.90
14851;BMP180;7517;48.400;11.770;2022-09-09T13:10:35;96281.00;;;24.90
14851;BMP180;7517;48.400;11.770;2022-09-09T13:13:04;96276.00;;;24.90
14851;BMP180;7517;48.400;11.770;2022-09-09T13:15:37;96277.00;;;24.80
14851;BMP180;7517;48.400;11.770;2022-09-09T13:18:11;96270.00;;;24.90
14851;BMP180;7517;48.400;11.770;2022-09-09T13:20:47;96281.00;;;24.90
14851;BMP180;7517;48.400;11.770;2022-09-09T13:23:16;96268.00;;;25.00
14851;BMP180;7517;48.400;11.770;2022-09-09T13:25:55;96267.00;;;25.00
14851;BMP180;7517;48.400;11.770;2022-09-09T13:28:26;96263.00;;;25.00
14851;BMP180;7517;48.400;11.770;2022-09-09T13:31:01;96265.00;;;25.00
14851;BMP180;7517;48.400;11.770;2022-09-09T13:33:34;96265.00;;;25.00
14851;BMP180;7517;48.400;11.770;2022-09-09T13:36:07;96261.00;;;25.00
14851;BMP180;7517;48.400;11.770;2022-09-09T13:38:38;96260.00;;;25.00
14851;BMP180;7517;48.400;11.770;2022-09-09T13:41:09;96254.00;;;25.00
14851;BMP180;7517;48.400;11.770;2022-09-09T13:43:44;96250.00;;;25.00
14851;BMP180;7517;48.400;11.770;2022-09-09T13:46:30;96256.00;;;25.00
14851;BMP180;7517;48.400;11.770;2022-09-09T13:49:00;96244.00;;;25.00
14851;BMP180;7517;48.400;11.770;2022-09-09T13:51:35;96251.00;;;25.10
14851;BMP180;7517;48.400;11.770;2022-09-09T13:54:04;96241.00;;;25.00
14851;BMP180;7517;48.400;11.770;2022-09-09T13:56:33;96229.00;;;25.00
14851;BMP180;7517;48.400;11.770;2022-09-09T13:59:01;96235.00;;;25.00
14851;BMP180;7517;48.400;11.770;2022-09-09T14:01:29;96230.00;;;25.00
14851;BMP180;7517;48.400;11.770;2022-09-09T14:03:57;96228.00;;;25.00
14851;BMP180;7517;48.400;11.770;2022-09-09T14:06:25;96218.00;;;25.00
14851;BMP180;7517;48.400;11.770;2022-09-09T14:08:54;96222.00;;;25.10
14851;BMP180;7517;48.400;11.770;2022-09-09T14:11:21;96221.00;;;25.10
14851;BMP180;7517;48.400;11.770;2022-09-09T14:13:48;96221.00;;;25.10
14851;BMP180;7517;48.400;11.770;2022-09-09T14:16:18;96220.00;;;25.10
14851;BMP180;7517;48.400;11.770;2022-09-09T14:18:46;96232.00;;;25.10
14851;BMP180;7517;48.400;11.770;2022-09-09T14:21:14;96222.00;;;25.10
14851;BMP180;7517;48.400;11.770;2022-09-09T14:23:41;96223.00;;;25.10
14851;BMP180;7517;48.400;11.770;2022-09-09T14:26:10;96219.00;;;25.10
14851;BMP180;7517;48.400;11.770;2022-09-09T14:28:37;96221.00;;;25.10
14851;BMP180;7517;48.400;11.770;2022-09-09T14:31:06;96230.00;;;25.10
14851;BMP180;7517;48.400;11.770;2022-09-09T14:33:36;96229.00;;;25.10
14851;BMP180;7517;48.400;11.770;2022-09-09T14:36:04;96227.00;;;25.10
14851;BMP180;7517;48.400;11.770;2022-09-09T14:38:33;96244.00;;;25.00
14851;BMP180;7517;48.400;11.770;2022-09-09T14:41:01;96246.00;;;24.90
14851;BMP180;7517;48.400;11.770;2022-09-09T14:43:30;96247.00;;;24.90
14851;BMP180;7517;48.400;11.770;2022-09-09T14:46:04;96248.00;;;24.90
14851;BMP180;7517;48.400;11.770;2022-09-09T14:48:32;96252.00;;;24.90
14851;BMP180;7517;48.400;11.770;2022-09-09T14:51:06;96263.00;;;24.90
14851;BMP180;7517;48.400;11.770;2022-09-09T14:53:34;96270.00;;;24.90